Powells Store, North Carolina
Current Conditions -  °F | °C
As of 5:53 PM on Wednesday 22 Oct 2014 (Local Time) from KDAN Reporting Station
Clear Clear  
Wind Chill: 62°   Ceiling: Unl
Heat Index: 62°   Visibility: 10mi
Dew Point: 41°   Wind: 9mph
Humidity: 46%   Direction: 300°WNW
Pressure: 30"   Gusts: NA
Location:  36.4355°N, 79.5464°W
Report Text: KDAN 222153Z AUTO 30008KT 10SM CLR 17/05 A3000 RMK AO2 SLP153 T01670050
Loading
Personal Weather Stations






























Interactive Weather Map
Tropical Storm Tracking
New forecast layout! Learn more

10-Day Weather Forecast

Advertisements
Track Severe Weather on mobile